createdAt,value
2019-02-15T00:00:28.121Z,32.13
2019-02-15T00:02:56.979Z,29.52
2019-02-15T00:05:25.846Z,22.05
2019-02-15T00:07:54.733Z,26.30
2019-02-15T00:10:23.601Z,28.27
2019-02-15T00:12:52.457Z,17.87
2019-02-15T00:15:21.349Z,23.15
2019-02-15T00:17:51.859Z,19.73
2019-02-15T00:20:37.662Z,24.37
2019-02-15T00:23:06.545Z,20.97
2019-02-15T00:25:35.410Z,20.85
2019-02-15T00:28:04.283Z,23.45
2019-02-15T00:30:33.173Z,19.85
2019-02-15T00:33:02.043Z,23.75
2019-02-15T00:35:30.899Z,14.90
2019-02-15T00:37:59.780Z,24.57
2019-02-15T00:40:28.656Z,16.55
2019-02-15T00:42:57.545Z,18.35
2019-02-15T00:45:28.055Z,16.10
2019-02-15T00:47:58.555Z,20.50
2019-02-15T00:50:29.081Z,20.12
2019-02-15T00:52:59.586Z,16.30
2019-02-15T00:55:30.085Z,19.32
2019-02-15T00:58:03.345Z,17.15
2019-02-15T01:00:36.255Z,21.40
2019-02-15T01:03:23.086Z,14.28
2019-02-15T01:05:59.631Z,22.95
2019-02-15T01:08:41.989Z,18.92
2019-02-15T01:11:12.505Z,19.25
2019-02-15T01:13:41.384Z,20.27
2019-02-15T01:16:10.243Z,18.77
2019-02-15T01:18:39.137Z,19.17
2019-02-15T01:21:07.999Z,20.37
2019-02-15T01:23:36.858Z,21.02
2019-02-15T01:26:10.029Z,19.27
2019-02-15T01:28:46.494Z,22.62
2019-02-15T01:31:33.128Z,20.70
2019-02-15T01:34:03.629Z,28.20
2019-02-15T01:36:36.743Z,18.73
2019-02-15T01:39:17.474Z,18.17
2019-02-15T01:41:59.897Z,22.75
2019-02-15T01:44:33.056Z,24.30
2019-02-15T01:47:03.574Z,21.02
2019-02-15T01:49:32.431Z,17.92
2019-02-15T01:52:01.325Z,21.37
2019-02-15T01:54:30.183Z,20.82
2019-02-15T01:56:59.036Z,22.87
2019-02-15T01:59:27.909Z,19.40
2019-02-15T02:01:56.772Z,18.45
2019-02-15T02:04:25.663Z,17.35
2019-02-15T02:06:54.671Z,18.67
2019-02-15T02:09:23.521Z,16.87
2019-02-15T02:11:52.404Z,18.42
2019-02-15T02:14:21.519Z,22.32
2019-02-15T02:16:50.417Z,16.73
2019-02-15T02:19:19.271Z,16.77
2019-02-15T02:21:48.120Z,18.37
2019-02-15T02:24:16.999Z,16.65
2019-02-15T02:26:45.861Z,20.23
2019-02-15T02:29:14.741Z,15.58
2019-02-15T02:31:43.600Z,15.78
2019-02-15T02:34:12.470Z,19.05
2019-02-15T02:36:49.399Z,18.12
2019-02-15T02:39:18.264Z,18.50
2019-02-15T02:41:47.296Z,18.95
2019-02-15T02:44:16.178Z,28.07
2019-02-15T02:46:45.026Z,20.97
2019-02-15T02:49:13.884Z,18.80
2019-02-15T02:51:42.759Z,20.50
2019-02-15T02:54:11.631Z,19.52
2019-02-15T02:56:40.482Z,18.60
2019-02-15T02:59:09.372Z,20.70
2019-02-15T03:01:38.223Z,23.20
2019-02-15T03:04:07.096Z,21.35
2019-02-15T03:06:35.958Z,22.67
2019-02-15T03:09:07.940Z,19.37
2019-02-15T03:11:36.797Z,21.80
2019-02-15T03:14:11.331Z,21.93
2019-02-15T03:16:36.255Z,20.10
2019-02-15T03:19:05.128Z,18.05
2019-02-15T03:21:33.991Z,21.37
2019-02-15T03:24:02.908Z,14.73
2019-02-15T03:26:31.776Z,18.60
2019-02-15T03:29:00.640Z,17.80
2019-02-15T03:31:29.488Z,17.02
2019-02-15T03:33:58.392Z,18.20
2019-02-15T03:36:31.591Z,16.42
2019-02-15T03:39:10.810Z,15.30
2019-02-15T03:41:39.653Z,16.37
2019-02-15T03:44:08.508Z,15.10
2019-02-15T03:46:37.393Z,17.65
2019-02-15T03:49:06.282Z,18.98
2019-02-15T03:51:35.135Z,18.45
2019-02-15T03:54:04.013Z,19.32
2019-02-15T03:56:32.857Z,18.50
2019-02-15T03:59:01.718Z,12.68
2019-02-15T04:01:30.603Z,18.25
2019-02-15T04:03:59.442Z,15.83
2019-02-15T04:06:28.333Z,18.70
2019-02-15T04:08:57.204Z,18.10
2019-02-15T04:11:26.103Z,28.25
2019-02-15T04:13:55.022Z,17.62
2019-02-15T04:16:23.873Z,16.35
2019-02-15T04:18:52.729Z,19.00
2019-02-15T04:21:21.666Z,21.60
2019-02-15T04:23:50.474Z,25.08
2019-02-15T04:26:19.343Z,20.23
2019-02-15T04:28:48.208Z,15.38
2019-02-15T04:31:17.078Z,14.70
2019-02-15T04:33:45.954Z,18.82
2019-02-15T04:36:14.816Z,23.18
2019-02-15T04:38:43.688Z,19.20
2019-02-15T04:41:12.578Z,19.00
2019-02-15T04:43:41.436Z,18.75
2019-02-15T04:46:10.334Z,24.67
2019-02-15T04:48:39.183Z,18.87
2019-02-15T04:51:08.069Z,17.82
2019-02-15T04:53:36.932Z,21.05
2019-02-15T04:56:05.795Z,22.10
2019-02-15T04:58:34.668Z,20.00
2019-02-15T05:01:03.551Z,17.45
2019-02-15T05:03:32.422Z,20.75
2019-02-15T05:06:01.288Z,23.22
2019-02-15T05:08:30.194Z,21.85
2019-02-15T05:10:59.080Z,22.60
2019-02-15T05:13:27.945Z,23.15
2019-02-15T05:15:56.808Z,21.52
2019-02-15T05:18:25.698Z,24.52
2019-02-15T05:20:54.559Z,24.40
2019-02-15T05:23:23.408Z,24.75
2019-02-15T05:25:52.274Z,24.72
2019-02-15T05:28:21.137Z,20.65
2019-02-15T05:30:49.994Z,24.85
2019-02-15T05:33:18.867Z,22.73
2019-02-15T05:35:47.740Z,24.12
2019-02-15T05:38:16.701Z,29.77
2019-02-15T05:40:45.591Z,29.00
2019-02-15T05:43:14.448Z,21.40
2019-02-15T05:45:43.318Z,22.93
2019-02-15T05:48:12.176Z,21.05
2019-02-15T05:50:41.039Z,27.30
2019-02-15T05:53:09.906Z,24.63
2019-02-15T05:55:38.803Z,23.67
2019-02-15T05:58:07.654Z,24.12
2019-02-15T06:00:37.347Z,22.58
2019-02-15T06:03:06.412Z,19.35
2019-02-15T06:05:35.291Z,23.25
2019-02-15T06:08:04.191Z,23.35
2019-02-15T06:10:33.048Z,32.78
2019-02-15T06:13:01.906Z,26.48
2019-02-15T06:15:30.794Z,19.32
2019-02-15T06:17:59.656Z,21.93
2019-02-15T06:20:28.545Z,19.92
2019-02-15T06:22:57.437Z,26.23
2019-02-15T06:25:26.316Z,28.10
2019-02-15T06:27:55.155Z,38.98
2019-02-15T06:30:24.043Z,18.95
2019-02-15T06:32:52.903Z,26.35
2019-02-15T06:35:21.760Z,30.82
2019-02-15T06:37:50.685Z,23.15
2019-02-15T06:40:19.544Z,24.05
2019-02-15T06:42:48.417Z,19.67
2019-02-15T06:45:24.386Z,22.10
2019-02-15T06:47:47.890Z,25.95
2019-02-15T06:50:16.766Z,19.98
2019-02-15T06:52:45.639Z,28.38
2019-02-15T06:55:14.493Z,18.40
2019-02-15T06:57:43.372Z,21.50
2019-02-15T07:00:23.080Z,50.20
2019-02-15T07:02:59.379Z,44.53
2019-02-15T07:05:28.266Z,22.25
2019-02-15T07:07:57.202Z,20.70
2019-02-15T07:10:26.085Z,24.82
2019-02-15T07:12:54.976Z,21.07
2019-02-15T07:15:23.908Z,15.58
2019-02-15T07:17:52.772Z,16.93
2019-02-15T07:20:21.861Z,26.23
2019-02-15T07:22:50.760Z,20.50
2019-02-15T07:25:19.636Z,25.48
2019-02-15T07:27:48.507Z,19.75
2019-02-15T07:30:17.490Z,23.27
2019-02-15T07:32:46.316Z,28.05
2019-02-15T07:35:15.203Z,32.75
2019-02-15T07:37:44.107Z,20.45
2019-02-15T07:40:12.995Z,18.40
2019-02-15T07:42:41.861Z,23.92
2019-02-15T07:45:11.510Z,20.62
2019-02-15T07:47:40.371Z,26.50
2019-02-15T07:50:11.928Z,16.67
2019-02-15T07:52:40.815Z,22.30
2019-02-15T07:55:10.062Z,19.02
2019-02-15T07:57:38.927Z,18.48
2019-02-15T08:00:13.642Z,26.65
2019-02-15T08:02:42.486Z,36.73
2019-02-15T08:05:11.744Z,22.62
2019-02-15T08:07:40.631Z,21.45
2019-02-15T08:10:11.160Z,17.40
2019-02-15T08:12:40.036Z,20.27
2019-02-15T08:15:10.519Z,17.42
2019-02-15T08:17:39.389Z,15.95
2019-02-15T08:20:10.853Z,19.77
2019-02-15T08:22:39.735Z,17.82
2019-02-15T08:25:09.439Z,26.35
2019-02-15T08:27:39.095Z,15.60
2019-02-15T08:30:11.790Z,19.40
2019-02-15T08:32:40.677Z,19.05
2019-02-15T08:35:10.882Z,16.42
2019-02-15T08:37:39.750Z,16.50
2019-02-15T08:40:10.668Z,19.25
2019-02-15T08:42:39.529Z,17.98
2019-02-15T08:45:11.470Z,16.97
2019-02-15T08:47:40.591Z,16.32
2019-02-15T08:50:11.327Z,17.62
2019-02-15T08:52:40.206Z,16.35
2019-02-15T08:55:10.912Z,17.23
2019-02-15T08:57:39.820Z,26.80
2019-02-15T09:00:11.249Z,17.52
2019-02-15T09:02:40.134Z,19.92
2019-02-15T09:05:11.440Z,17.15
2019-02-15T09:07:40.373Z,18.40
2019-02-15T09:10:11.516Z,14.35
2019-02-15T09:12:40.362Z,16.20
2019-02-15T09:15:12.152Z,19.73
2019-02-15T09:17:41.103Z,17.10
2019-02-15T09:20:11.608Z,18.57
2019-02-15T09:22:40.195Z,16.27
2019-02-15T09:25:10.807Z,19.00
2019-02-15T09:27:41.088Z,21.43
2019-02-15T09:30:14.517Z,19.50
2019-02-15T09:32:43.082Z,21.83
2019-02-15T09:35:12.516Z,17.57
2019-02-15T09:37:41.106Z,18.40
2019-02-15T09:40:10.740Z,18.43
2019-02-15T09:42:39.294Z,17.50
2019-02-15T09:45:12.673Z,21.23
2019-02-15T09:47:41.246Z,20.30
2019-02-15T09:50:12.217Z,21.47
2019-02-15T09:52:41.146Z,21.50
2019-02-15T09:55:09.730Z,32.60
2019-02-15T09:57:38.345Z,19.60
2019-02-15T10:00:10.997Z,20.40
2019-02-15T10:02:39.630Z,19.13
2019-02-15T10:05:09.039Z,21.23
2019-02-15T10:07:37.638Z,24.67
2019-02-15T10:10:08.854Z,18.70
2019-02-15T10:12:37.404Z,19.97
2019-02-15T10:15:10.526Z,24.83
2019-02-15T10:17:39.100Z,17.97
2019-02-15T10:20:09.985Z,20.30
2019-02-15T10:22:38.553Z,17.83
2019-02-15T10:25:08.972Z,17.80
2019-02-15T10:27:37.551Z,22.70
2019-02-15T10:30:09.327Z,21.17
2019-02-15T10:32:37.893Z,21.73
2019-02-15T10:35:11.064Z,20.67
2019-02-15T10:37:39.645Z,17.10
2019-02-15T10:40:11.982Z,16.73
2019-02-15T10:42:40.561Z,15.97
2019-02-15T10:45:16.597Z,23.17
2019-02-15T10:47:45.203Z,18.37
2019-02-15T10:50:13.762Z,18.60
2019-02-15T10:52:42.343Z,16.63
2019-02-15T10:55:11.138Z,24.97
2019-02-15T10:57:39.716Z,19.63
2019-02-15T11:00:15.475Z,18.07
2019-02-15T11:02:44.091Z,16.20
2019-02-15T11:05:12.662Z,19.23
2019-02-15T11:07:41.243Z,16.53
2019-02-15T11:10:10.350Z,15.10
2019-02-15T11:12:38.930Z,14.30
2019-02-15T11:15:13.293Z,15.57
2019-02-15T11:17:41.885Z,16.63
2019-02-15T11:20:13.063Z,15.63
2019-02-15T11:22:41.651Z,26.07
2019-02-15T11:25:11.576Z,16.07
2019-02-15T11:27:40.146Z,16.30
2019-02-15T11:30:11.529Z,17.63
2019-02-15T11:32:40.132Z,12.93
2019-02-15T11:35:11.032Z,11.47
2019-02-15T11:37:39.594Z,14.50
2019-02-15T11:40:11.236Z,10.53
2019-02-15T11:42:39.830Z,9.77
2019-02-15T11:45:14.058Z,10.53
2019-02-15T11:47:42.621Z,9.80
2019-02-15T11:50:13.226Z,12.87
2019-02-15T11:52:41.792Z,12.37
2019-02-15T11:55:11.242Z,7.73
2019-02-15T11:57:39.894Z,12.53
2019-02-15T12:00:14.544Z,10.40
2019-02-15T12:02:43.047Z,10.20
2019-02-15T12:05:11.634Z,10.53
2019-02-15T12:07:40.196Z,12.03
2019-02-15T12:10:10.493Z,13.23
2019-02-15T12:12:39.081Z,10.53
2019-02-15T12:15:09.304Z,16.00
2019-02-15T12:17:37.870Z,12.57
2019-02-15T12:20:11.696Z,10.77
2019-02-15T12:22:40.295Z,10.50
2019-02-15T12:25:09.257Z,15.40
2019-02-15T12:27:37.797Z,9.73
2019-02-15T12:30:11.745Z,12.87
2019-02-15T12:32:40.307Z,7.47
2019-02-15T12:35:10.131Z,9.13
2019-02-15T12:37:38.713Z,11.80
2019-02-15T12:40:09.242Z,9.67
2019-02-15T12:42:37.815Z,9.20
2019-02-15T12:45:09.731Z,9.30
2019-02-15T12:47:38.326Z,17.37
2019-02-15T12:50:10.339Z,16.43
2019-02-15T12:52:39.021Z,10.33
2019-02-15T12:55:07.764Z,9.43
2019-02-15T12:57:36.409Z,9.17
2019-02-15T13:00:08.150Z,8.97
2019-02-15T13:02:36.784Z,12.30
2019-02-15T13:05:07.437Z,10.70
2019-02-15T13:07:36.003Z,7.23
2019-02-15T13:10:07.301Z,11.43
2019-02-15T13:12:35.882Z,15.83
2019-02-15T13:15:04.972Z,12.57
2019-02-15T13:17:35.196Z,8.80
2019-02-15T13:20:04.648Z,12.57
2019-02-15T13:22:33.259Z,13.50
2019-02-15T13:25:01.830Z,13.83
2019-02-15T13:27:30.435Z,8.90
2019-02-15T13:29:58.980Z,9.17
2019-02-15T13:32:27.564Z,14.27
2019-02-15T13:34:56.215Z,9.10
2019-02-15T13:37:24.819Z,9.87
2019-02-15T13:39:53.365Z,8.67
2019-02-15T13:42:21.943Z,8.13
2019-02-15T13:44:50.524Z,9.40
2019-02-15T13:47:19.079Z,12.03
2019-02-15T13:49:47.643Z,9.67
2019-02-15T13:52:16.247Z,12.73
2019-02-15T13:54:44.808Z,8.73
2019-02-15T13:57:13.367Z,9.63
2019-02-15T13:59:41.951Z,11.33
2019-02-15T14:02:10.535Z,10.27
2019-02-15T14:04:39.108Z,8.10
2019-02-15T14:07:16.302Z,12.10
2019-02-15T14:09:44.895Z,13.77
2019-02-15T14:12:13.483Z,9.27
2019-02-15T14:14:42.085Z,20.37
2019-02-15T14:17:10.663Z,15.83
2019-02-15T14:19:39.237Z,8.97
2019-02-15T14:22:07.829Z,14.57
2019-02-15T14:24:36.415Z,22.67
2019-02-15T14:27:04.989Z,13.50
2019-02-15T14:29:33.567Z,7.03
2019-02-15T14:32:02.154Z,10.10
2019-02-15T14:34:30.745Z,5.10
2019-02-15T14:36:59.353Z,4.70
2019-02-15T14:39:27.913Z,5.97
2019-02-15T14:41:56.484Z,8.77
2019-02-15T14:44:25.122Z,15.43
2019-02-15T14:46:53.645Z,4.60
2019-02-15T14:49:22.224Z,12.97
2019-02-15T14:51:50.814Z,19.23
2019-02-15T14:54:19.403Z,9.67
2019-02-15T14:56:47.980Z,31.97
2019-02-15T14:59:16.566Z,18.57
2019-02-15T15:01:45.425Z,9.23
2019-02-15T15:04:13.989Z,7.10
2019-02-15T15:06:42.578Z,13.00
2019-02-15T15:09:11.140Z,24.30
2019-02-15T15:11:39.701Z,20.13
2019-02-15T15:14:08.284Z,15.67
2019-02-15T15:16:36.880Z,14.37
2019-02-15T15:19:05.461Z,12.90
2019-02-15T15:21:35.038Z,15.43
2019-02-15T15:24:03.710Z,17.43
2019-02-15T15:26:32.312Z,16.37
2019-02-15T15:29:00.916Z,14.40
2019-02-15T15:31:29.496Z,14.20
2019-02-15T15:33:58.063Z,19.97
2019-02-15T15:36:26.643Z,16.20
2019-02-15T15:38:55.222Z,14.33
2019-02-15T15:41:29.620Z,12.37
2019-02-15T15:43:58.183Z,9.50
2019-02-15T15:46:26.781Z,13.40
2019-02-15T15:48:55.386Z,14.93
2019-02-15T15:51:23.942Z,14.00
2019-02-15T15:53:52.520Z,14.80
2019-02-15T15:56:21.089Z,9.93
2019-02-15T15:58:51.546Z,10.17
2019-02-15T16:01:19.994Z,10.27
2019-02-15T16:03:48.581Z,9.03
2019-02-15T16:06:24.141Z,12.03
2019-02-15T16:08:47.500Z,13.57
2019-02-15T16:11:16.080Z,13.33
2019-02-15T16:13:44.653Z,11.33
2019-02-15T16:16:13.232Z,16.37
2019-02-15T16:18:41.840Z,19.67
2019-02-15T16:21:10.416Z,17.97
2019-02-15T16:23:38.985Z,19.47
2019-02-15T16:26:07.594Z,15.83
2019-02-15T16:28:36.141Z,17.83
2019-02-15T16:31:04.712Z,14.60
2019-02-15T16:33:33.289Z,11.97
2019-02-15T16:36:01.893Z,18.30
2019-02-15T16:38:30.485Z,16.13
2019-02-15T16:40:59.037Z,14.17
2019-02-15T16:43:27.614Z,19.33
2019-02-15T16:45:56.183Z,19.30
2019-02-15T16:48:24.767Z,18.63
2019-02-15T16:50:53.318Z,17.47
2019-02-15T16:53:21.934Z,21.63
2019-02-15T16:55:50.496Z,16.37
2019-02-15T16:58:19.086Z,18.60
2019-02-15T17:00:47.676Z,31.90
2019-02-15T17:03:16.224Z,16.77
2019-02-15T17:05:44.789Z,27.53
2019-02-15T17:08:13.374Z,31.33
2019-02-15T17:10:41.958Z,25.63
2019-02-15T17:13:10.555Z,36.30
2019-02-15T17:15:39.115Z,29.67
2019-02-15T17:18:07.682Z,36.33
2019-02-15T17:20:36.264Z,34.00
2019-02-15T17:23:04.859Z,32.10
2019-02-15T17:25:33.434Z,31.23
2019-02-15T17:28:02.023Z,23.60
2019-02-15T17:30:30.605Z,24.97
2019-02-15T17:32:59.188Z,39.90
2019-02-15T17:35:27.770Z,25.30
2019-02-15T17:37:56.360Z,37.63
2019-02-15T17:40:24.941Z,31.67
2019-02-15T17:42:53.529Z,39.47
2019-02-15T17:45:22.096Z,26.37
2019-02-15T17:47:50.683Z,20.90
2019-02-15T17:50:19.304Z,27.30
2019-02-15T17:52:48.055Z,39.03
2019-02-15T17:55:19.576Z,36.03
2019-02-15T17:57:48.168Z,40.77
2019-02-15T18:00:18.377Z,38.43
2019-02-15T18:02:46.970Z,44.23
2019-02-15T18:05:18.232Z,27.33
2019-02-15T18:07:50.881Z,29.20
2019-02-15T18:10:19.501Z,29.17
2019-02-15T18:12:48.070Z,26.40
2019-02-15T18:15:16.719Z,27.57
2019-02-15T18:17:45.295Z,30.37
2019-02-15T18:20:14.254Z,28.80
2019-02-15T18:22:42.847Z,25.57
2019-02-15T18:25:11.749Z,23.83
2019-02-15T18:27:40.391Z,24.70
2019-02-15T18:30:14.387Z,28.70
2019-02-15T18:32:42.959Z,34.10
2019-02-15T18:35:11.563Z,31.33
2019-02-15T18:37:40.152Z,33.70
2019-02-15T18:40:10.679Z,30.33
2019-02-15T18:42:39.275Z,38.17
2019-02-15T18:45:13.441Z,38.47
2019-02-15T18:47:42.097Z,42.17
2019-02-15T18:50:10.864Z,33.73
2019-02-15T18:52:39.424Z,34.03
2019-02-15T18:55:11.519Z,39.10
2019-02-15T18:57:40.126Z,33.73
2019-02-15T19:00:17.125Z,27.93
2019-02-15T19:02:48.652Z,39.07
2019-02-15T19:05:17.268Z,50.83
2019-02-15T19:07:45.839Z,26.37
2019-02-15T19:10:17.285Z,24.50
2019-02-15T19:12:46.052Z,27.40
2019-02-15T19:15:16.291Z,31.90
2019-02-15T19:17:44.882Z,32.20
2019-02-15T19:20:15.282Z,29.03
2019-02-15T19:22:43.968Z,36.67
2019-02-15T19:25:14.566Z,26.13
2019-02-15T19:27:43.178Z,32.33
2019-02-15T19:30:20.095Z,38.90
2019-02-15T19:32:48.871Z,34.73
2019-02-15T19:35:17.512Z,40.03
2019-02-15T19:37:46.095Z,37.13
2019-02-15T19:40:17.384Z,35.87
2019-02-15T19:42:46.951Z,46.00
2019-02-15T19:45:15.703Z,33.70
2019-02-15T19:47:44.310Z,30.80
2019-02-15T19:50:17.721Z,46.73
2019-02-15T19:52:48.137Z,27.33
2019-02-15T19:55:16.909Z,30.10
2019-02-15T19:57:45.444Z,27.43
2019-02-15T20:00:16.496Z,30.33
2019-02-15T20:02:45.096Z,31.80
2019-02-15T20:05:13.846Z,30.07
2019-02-15T20:07:42.420Z,23.43
2019-02-15T20:10:14.837Z,31.43
2019-02-15T20:12:43.460Z,34.20
2019-02-15T20:15:13.822Z,32.30
2019-02-15T20:17:42.448Z,28.33
2019-02-15T20:20:12.955Z,34.27
2019-02-15T20:22:41.625Z,26.57
2019-02-15T20:25:11.971Z,44.67
2019-02-15T20:27:40.575Z,31.17
2019-02-15T20:30:14.496Z,40.00
2019-02-15T20:32:43.112Z,40.90
2019-02-15T20:35:13.438Z,30.10
2019-02-15T20:37:42.075Z,34.37
2019-02-15T20:40:12.098Z,34.10
2019-02-15T20:42:40.716Z,40.47
2019-02-15T20:45:16.604Z,30.00
2019-02-15T20:47:45.214Z,30.67
2019-02-15T20:50:14.453Z,28.80
2019-02-15T20:52:43.044Z,33.70
2019-02-15T20:55:19.130Z,32.37
2019-02-15T20:57:47.702Z,24.50
2019-02-15T21:00:27.708Z,40.87
2019-02-15T21:02:56.295Z,31.27
2019-02-15T21:05:24.873Z,27.90
2019-02-15T21:07:53.467Z,24.67
2019-02-15T21:10:22.549Z,26.13
2019-02-15T21:12:51.170Z,22.60
2019-02-15T21:15:20.011Z,28.90
2019-02-15T21:17:49.524Z,25.47
2019-02-15T21:20:18.172Z,25.43
2019-02-15T21:22:46.715Z,24.00
2019-02-15T21:25:16.748Z,20.23
2019-02-15T21:27:45.424Z,21.90
2019-02-15T21:30:15.727Z,24.60
2019-02-15T21:32:44.329Z,20.53
2019-02-15T21:35:13.181Z,24.33
2019-02-15T21:37:41.784Z,22.63
2019-02-15T21:40:16.062Z,41.50
2019-02-15T21:42:44.643Z,23.40
2019-02-15T21:45:13.810Z,22.53
2019-02-15T21:47:42.479Z,21.50
2019-02-15T21:50:17.281Z,21.67
2019-02-15T21:52:44.299Z,21.30
2019-02-15T21:55:14.998Z,26.15
2019-02-15T21:57:43.881Z,27.60
2019-02-15T22:00:18.246Z,25.95
2019-02-15T22:02:47.120Z,26.33
2019-02-15T22:05:16.582Z,21.73
2019-02-15T22:07:45.613Z,26.52
2019-02-15T22:10:14.551Z,26.17
2019-02-15T22:12:43.423Z,30.40
2019-02-15T22:15:14.784Z,34.38
2019-02-15T22:17:43.695Z,28.85
2019-02-15T22:20:14.213Z,25.32
2019-02-15T22:22:43.091Z,28.50
2019-02-15T22:25:11.972Z,27.77
2019-02-15T22:27:40.871Z,25.27
2019-02-15T22:30:15.254Z,34.80
2019-02-15T22:32:44.133Z,34.25
2019-02-15T22:35:12.988Z,31.93
2019-02-15T22:37:41.880Z,28.20
2019-02-15T22:40:27.982Z,32.53
2019-02-15T22:42:59.127Z,28.42
2019-02-15T22:45:28.051Z,29.23
2019-02-15T22:47:56.929Z,59.55
2019-02-15T22:50:25.791Z,35.23
2019-02-15T22:52:54.649Z,31.90
2019-02-15T22:55:23.547Z,37.53
2019-02-15T22:57:52.439Z,39.78
2019-02-15T23:00:24.387Z,41.13
2019-02-15T23:02:53.269Z,39.42
2019-02-15T23:05:22.164Z,37.23
2019-02-15T23:07:51.023Z,54.40
2019-02-15T23:10:19.996Z,30.85
2019-02-15T23:12:48.859Z,33.08
2019-02-15T23:15:17.721Z,38.02
2019-02-15T23:17:46.611Z,40.63
2019-02-15T23:20:15.520Z,33.40
2019-02-15T23:22:44.378Z,35.80
2019-02-15T23:25:13.226Z,31.15
2019-02-15T23:27:42.107Z,39.85
2019-02-15T23:30:11.037Z,48.55
2019-02-15T23:32:39.927Z,35.30
2019-02-15T23:35:08.784Z,32.60
2019-02-15T23:37:37.650Z,32.08
2019-02-15T23:40:06.518Z,33.50
2019-02-15T23:42:35.406Z,38.17
2019-02-15T23:45:04.843Z,31.48
2019-02-15T23:47:33.710Z,30.75
2019-02-15T23:50:02.570Z,32.35
2019-02-15T23:52:31.441Z,31.37
2019-02-15T23:55:00.325Z,35.58
2019-02-15T23:57:29.199Z,37.30
2019-02-15T23:59:58.104Z,38.17
